• Join FlightAware (Why Join?)
  • Login
  • US Flag 
01:59PM EDT


 

Airport Tracker/Info


-or-


 

Live Flight TrackerFlight Track Log ✈ SKW5162 ✈ 11-May-2013 ✈ KIAH - KPIT

Flight Track Log - Related Links

Times and Time Zones

All times are in EDT time to prevent confusion due to time zone crossing. See the SKW5162 flight status page for this flight to view local times or setup timezone preferences in your user account.

Time Position Orientation Groundspeed Altitude Reporting Facility
EDT Latitude Longitude Course Direction KTS MPH feet Rate Location/Type
08:57PM 29.9817 -95.3556 27° Northeast 176 203 900  Level Houston Center
08:58PM 30.0128 -95.3519 North 191 220 2,300 1,680 Climbing Houston Center
08:59PM 30.0458 -95.3344 25° Northeast 204 235 3,200 2,100 Climbing Houston Center
08:59PM 30.0806 -95.3122 29° Northeast 271 312 4,700 2,700 Climbing Houston Center
09:00PM 30.3696 -95.1818 23° Northeast  Level FlightAware Approximate
09:00PM 30.1122 -95.2983 21° North 255 293 6,000  Level Houston Center
09:01PM 30.4932 -95.1141 27° Northeast  Level FlightAware Approximate
09:01PM 30.1825 -95.2642 23° Northeast 271 312 8,700  Level Houston Center
09:02PM 30.6139 -95.0417 27° Northeast  Level FlightAware Approximate
09:02PM 30.2608 -95.2347 18° North 290 334 10,700  Level Houston Center
09:03PM 30.3533 -95.2000 18° North 342 394 12,100 1,560 Climbing Houston Center
09:04PM 30.4561 -95.1589 19° North 375 432 13,900 1,920 Climbing Houston Center
09:05PM 30.5531 -95.0989 28° Northeast 390 449 16,100 2,160 Climbing Houston Center
09:06PM 30.6481 -95.0389 29° Northeast 391 450 18,300 1,860 Climbing Houston Center
09:07PM 30.7464 -94.9786 28° Northeast 396 456 20,000 1,440 Climbing Houston Center
09:08PM 30.8472 -94.9147 29° Northeast 416 479 21,300 1,500 Climbing Houston Center
09:09PM 30.9733 -94.8353 28° Northeast 428 493 23,100 1,380 Climbing Houston Center
09:09PM 31.0153 -94.8103 27° Northeast 410 472 23,500 1,080 Climbing Fort Worth Center
09:10PM 31.1431 -94.7339 27° Northeast 440 506 24,800 1,200 Climbing Fort Worth Center
09:11PM 31.2564 -94.6553 31° Northeast 457 526 25,900 1,080 Climbing Fort Worth Center
09:12PM 31.3694 -94.5764 31° Northeast 462 532 27,000 1,020 Climbing Fort Worth Center
09:13PM 31.4864 -94.4950 31° Northeast 474 545 28,000 780 Climbing Fort Worth Center
09:14PM 31.6056 -94.4108 31° Northeast 486 559 28,600 660 Climbing Fort Worth Center
09:15PM 31.7289 -94.3261 30° Northeast 491 565 29,400 780 Climbing Fort Worth Center
09:16PM 31.8519 -94.2389 31° Northeast 502 578 30,200 780 Climbing Fort Worth Center
09:17PM 31.9750 -94.1514 31° Northeast 507 583 31,000 780 Climbing Fort Worth Center
09:18PM 32.0975 -94.0539 34° Northeast 512 589 31,800 780 Climbing Fort Worth Center
09:19PM 32.1969 -93.9494 42° Northeast 519 597 32,600 840 Climbing Fort Worth Center
09:20PM 32.3089 -93.8369 40° Northeast 524 603 33,500 900 Climbing Fort Worth Center
09:21PM 32.4244 -93.7267 39° Northeast 524 603 34,400 900 Climbing Fort Worth Center
09:22PM 32.5361 -93.6136 40° Northeast 529 609 35,300 840 Climbing Fort Worth Center
09:23PM 32.6494 -93.5028 39° Northeast 529 609 36,100 720 Climbing Fort Worth Center
09:24PM 32.7586 -93.3894 41° Northeast 529 609 36,800 420 Climbing Fort Worth Center
09:25PM 32.8742 -93.2803 38° Northeast 529 609 37,000 60 Climbing Fort Worth Center
09:26PM 32.9872 -93.1661 40° Northeast 535 616 37,000  Level Fort Worth Center
09:27PM 33.1183 -93.0358 40° Northeast 546 628 37,000  Level Fort Worth Center
09:28PM 33.2331 -92.9186 41° Northeast 546 628 37,000  Level Fort Worth Center
09:31PM 33.4836 -92.6686 40° Northeast 538 619 37,000  Level Memphis Center
09:32PM 33.5964 -92.5519 41° Northeast 533 613 37,000  Level Memphis Center
09:33PM 33.7089 -92.4372 40° Northeast 528 608 37,000  Level Memphis Center
09:34PM 33.8233 -92.3225 40° Northeast 528 608 37,000  Level Memphis Center
09:35PM 33.9358 -92.2075 40° Northeast 528 608 37,000  Level Memphis Center
09:36PM 34.0458 -92.0919 41° Northeast 528 608 37,000  Level Memphis Center
09:37PM 34.1644 -91.9611 42° Northeast 522 601 37,000  Level Memphis Center
09:38PM 34.2767 -91.8428 41° Northeast 522 601 37,000  Level Memphis Center
09:39PM 34.3844 -91.7289 41° Northeast 516 594 37,000  Level Memphis Center
09:40PM 34.4983 -91.6147 40° Northeast 522 601 37,000  Level Memphis Center
09:41PM 34.6058 -91.4978 42° Northeast 522 601 37,000  Level Memphis Center
09:42PM 34.7069 -91.3928 40° Northeast 522 601 37,000  Level Memphis Center
09:43PM 34.8203 -91.2753 40° Northeast 516 594 37,000  Level Memphis Center
09:44PM 34.9297 -91.1575 41° Northeast 516 594 37,000  Level Memphis Center
09:45PM 35.0244 -91.0164 51° Northeast 527 606 37,000  Level Memphis Center
09:46PM 35.0981 -90.8597 60° Northeast 532 612 37,000  Level Memphis Center
09:47PM 35.1800 -90.6847 60° Northeast 537 618 37,000  Level Memphis Center
09:48PM 35.2533 -90.5250 61° Northeast 537 618 37,000  Level Memphis Center
09:49PM 35.3286 -90.3672 60° Northeast 537 618 37,000  Level Memphis Center
09:50PM 35.4036 -90.2042 61° Northeast 544 626 37,000  Level Memphis Center
09:51PM 35.4764 -90.0436 61° Northeast 539 620 37,000  Level Memphis Center
09:52PM 35.5508 -89.8850 60° Northeast 544 626 37,000  Level Memphis Center
09:53PM 35.6150 -89.7389 62° Northeast 550 633 37,000  Level Memphis Center
09:54PM 35.6994 -89.5619 60° Northeast 545 627 37,000  Level Memphis Center
09:55PM 35.7650 -89.4003 63° Northeast 538 619 37,000  Level Memphis Center
09:56PM 35.8386 -89.2381 61° Northeast 538 619 37,000  Level Memphis Center
09:57PM 35.9122 -89.0756 61° Northeast 538 619 37,000  Level Memphis Center
09:58PM 35.9853 -88.9103 61° Northeast 543 625 37,000  Level Memphis Center
09:59PM 36.0583 -88.7447 61° Northeast 548 631 37,000  Level Memphis Center
10:00PM 36.1333 -88.5839 60° Northeast 548 631 37,000  Level Memphis Center
10:01PM 36.2081 -88.4175 61° Northeast 548 631 37,000  Level Memphis Center
10:02PM 36.2803 -88.2511 62° Northeast 548 631 37,000  Level Memphis Center
10:03PM 36.3506 -88.0919 61° Northeast 548 631 37,000  Level Memphis Center
10:04PM 36.4222 -87.9225 62° Northeast 532 612 37,000  Level Memphis Center
10:05PM 36.4881 -87.7758 61° Northeast 538 619 37,000  Level Memphis Center
10:06PM 36.5594 -87.6083 62° Northeast 538 619 37,000  Level Memphis Center
10:07PM 36.6328 -87.4378 62° Northeast 550 633 37,000  Level Memphis Center
10:08PM 36.7058 -87.2719 61° Northeast 545 627 37,000  Level Memphis Center
10:09PM 36.7844 -87.0850 62° Northeast 550 633 37,000  Level Memphis Center
10:10PM 36.8550 -86.9161 62° Northeast 550 633 37,000  Level Memphis Center
10:11PM 36.9253 -86.7472 62° Northeast 550 633 37,000  Level Memphis Center
10:13PM 37.0778 -86.3753 63° Northeast 555 639 37,000  Level Indianapolis Center
10:14PM 37.1497 -86.2025 62° Northeast 554 638 37,000  Level Indianapolis Center
10:15PM 37.2203 -86.0278 63° Northeast 555 639 37,000  Level Indianapolis Center
10:16PM 37.2967 -85.8433 62° Northeast 552 635 37,000  Level Indianapolis Center
10:17PM 37.3594 -85.6867 63° Northeast 552 635 37,000  Level Indianapolis Center
10:18PM 37.4367 -85.4975 63° Northeast 554 638 37,000  Level Indianapolis Center
10:19PM 37.5061 -85.3264 63° Northeast 551 634 37,000  Level Indianapolis Center
10:20PM 37.5747 -85.1528 63° Northeast 552 635 37,000  Level Indianapolis Center
10:21PM 37.6419 -84.9792 64° Northeast 551 634 37,000  Level Indianapolis Center
10:22PM 37.7114 -84.8042 63° Northeast 554 638 37,000  Level Indianapolis Center
10:23PM 37.7789 -84.6300 64° Northeast 552 635 37,000  Level Indianapolis Center
10:24PM 37.8472 -84.4561 63° Northeast 550 633 37,000  Level Indianapolis Center
10:25PM 37.9231 -84.2867 60° Northeast 553 636 37,000  Level Indianapolis Center
10:26PM 38.0197 -84.1358 51° Northeast 543 625 37,000  Level Indianapolis Center
10:27PM 38.1172 -83.9828 51° Northeast 551 634 37,000  Level Indianapolis Center
10:28PM 38.2136 -83.8283 52° Northeast 554 638 37,000  Level Indianapolis Center
10:29PM 38.3089 -83.6769 51° Northeast 547 629 37,000  Level Indianapolis Center
10:30PM 38.4031 -83.5250 52° Northeast 545 627 37,000  Level Indianapolis Center
10:31PM 38.4997 -83.3708 51° Northeast 550 633 37,000  Level Indianapolis Center
10:32PM 38.5936 -83.2167 52° Northeast 548 631 37,000  Level Indianapolis Center
10:33PM 38.6817 -83.0731 52° Northeast 551 634 37,000  Level Indianapolis Center
10:34PM 38.7953 -82.8892 52° Northeast 549 632 37,000  Level Indianapolis Center
10:35PM 38.8878 -82.7342 52° Northeast 546 628 37,000  Level Indianapolis Center
10:36PM 38.9819 -82.5792 52° Northeast 547 629 37,000 -960 Level Indianapolis Center
10:37PM 39.0775 -82.4219 52° Northeast 554 638 35,100 -1,500 Descending Indianapolis Center
10:38PM 39.1703 -82.2678 52° Northeast 545 627 34,000 -600 Descending Indianapolis Center
10:39PM 39.2603 -82.1178 52° Northeast 530 610 34,000  Level Indianapolis Center
10:40PM 39.3481 -81.9708 52° Northeast 517 595 34,000 -1,080 Level Indianapolis Center
10:41PM 39.4342 -81.8256 52° Northeast 508 585 31,900 -2,460 Descending Indianapolis Center
10:42PM 39.5181 -81.6808 53° Northeast 501 577 29,000 -2,880 Descending Indianapolis Center
10:43PM 39.5992 -81.5414 53° Northeast 487 560 26,100 -2,700 Descending Indianapolis Center
10:44PM 39.6594 -81.4433 51° Northeast 493 567 24,100 -2,700 Descending Cleveland Center
10:45PM 39.7356 -81.3092 54° Northeast 472 543 21,200 -2,940 Descending Cleveland Center
10:46PM 39.8092 -81.1831 53° Northeast 454 522 18,300 -3,000 Descending Cleveland Center
10:47PM 39.8806 -81.0564 54° Northeast 442 509 15,300 -3,000 Descending Cleveland Center
10:48PM 39.9497 -80.9378 53° Northeast 423 487 12,400 -2,640 Descending Cleveland Center
10:49PM 40.0147 -80.8244 53° Northeast 407 468 10,100 -1,200 Descending Cleveland Center
10:50PM 40.0858 -80.7161 49° Northeast 396 456 10,000 -60 Descending Cleveland Center
10:51PM 40.1525 -80.6047 52° Northeast 390 449 10,000 -240 Level Cleveland Center
10:52PM 40.2194 -80.5150 46° Northeast 366 421 9,600 -1,620 Descending Cleveland Center
10:53PM 40.2964 -80.5122 North 285 328 6,800 -2,340 Descending Cleveland Center
10:54PM 40.3714 -80.5122 360° North 264 304 5,000 -1,440 Descending Cleveland Center
10:55PM 40.4403 -80.5150 358° North 254 292 4,000 -600 Descending Cleveland Center
10:56PM 40.5028 -80.5011 10° North 237 273 3,800 -300 Descending Cleveland Center
10:57PM 40.5069 -80.4219 86° East 170 196 3,500 -300 Descending Cleveland Center